Xifengzhen, China
Current Conditions -  °F | °C
As of 6:00 AM on Friday 19 Dec 2014 (Local Time) from ZLXY Reporting Station
Haze Haze  
Wind Chill: 18°   Ceiling: Unl
Heat Index: 18°   Visibility: 1.2mi
Dew Point: 14°   Wind: 2mph
Humidity: 86%   Direction: 220°SW
Pressure: 30.27"   Gusts: NA
Location:  35.73°N, 107.63°E
Report Text: ZLXY 182200Z 22001MPS 2000 BR NSC M08/M10 Q1025 NOSIG
Loading
Personal Weather Stations






























Interactive Weather Map New forecast layout! Learn more

10-Day Weather Forecast

Advertisements
Track Severe Weather on mobile